createdAt,value
2022-11-30T00:01:24.346Z,33.95
2022-11-30T00:03:55.818Z,36.47
2022-11-30T00:06:24.487Z,34.42
2022-11-30T00:08:57.181Z,35.20
2022-11-30T00:11:28.418Z,33.83
2022-11-30T00:13:56.084Z,38.15
2022-11-30T00:16:23.725Z,33.25
2022-11-30T00:18:51.271Z,33.65
2022-11-30T00:21:18.901Z,39.35
2022-11-30T00:23:48.002Z,31.65
2022-11-30T00:26:17.979Z,43.38
2022-11-30T00:28:47.674Z,35.97
2022-11-30T00:31:17.266Z,40.88
2022-11-30T00:33:45.080Z,39.75
2022-11-30T00:36:19.039Z,38.60
2022-11-30T00:38:47.000Z,38.72
2022-11-30T00:41:15.346Z,33.67
2022-11-30T00:43:43.151Z,35.60
2022-11-30T00:46:11.448Z,33.80
2022-11-30T00:48:39.968Z,31.88
2022-11-30T00:51:08.851Z,32.72
2022-11-30T00:53:36.450Z,37.58
2022-11-30T00:56:04.831Z,41.30
2022-11-30T00:58:32.306Z,37.88
2022-11-30T01:00:59.856Z,37.28
2022-11-30T01:03:27.329Z,37.78
2022-11-30T01:05:54.775Z,35.13
2022-11-30T01:08:22.307Z,34.17
2022-11-30T01:10:53.596Z,37.55
2022-11-30T01:13:21.006Z,34.67
2022-11-30T01:15:48.403Z,34.10
2022-11-30T01:18:15.998Z,33.75
2022-11-30T01:20:43.665Z,30.92
2022-11-30T01:23:11.486Z,35.15
2022-11-30T01:25:39.274Z,39.22
2022-11-30T01:28:07.193Z,32.65
2022-11-30T01:30:34.627Z,29.25
2022-11-30T01:33:06.028Z,32.00
2022-11-30T01:35:33.534Z,33.65
2022-11-30T01:38:00.949Z,33.70
2022-11-30T01:40:28.351Z,30.88
2022-11-30T01:42:55.790Z,31.77
2022-11-30T01:45:23.379Z,30.80
2022-11-30T01:47:54.755Z,29.38
2022-11-30T01:50:27.010Z,29.55
2022-11-30T01:52:57.097Z,30.65
2022-11-30T01:55:32.455Z,30.58
2022-11-30T01:58:05.910Z,27.15
2022-11-30T02:00:33.443Z,29.02
2022-11-30T02:03:11.415Z,31.63
2022-11-30T02:05:41.412Z,34.30
2022-11-30T02:08:14.078Z,31.25
2022-11-30T02:10:45.519Z,30.08
2022-11-30T02:13:38.456Z,31.15
2022-11-30T02:16:24.571Z,28.02
2022-11-30T02:19:39.393Z,28.70
2022-11-30T02:22:27.663Z,30.25
2022-11-30T02:25:06.779Z,25.65
2022-11-30T02:27:56.757Z,28.05
2022-11-30T02:30:24.716Z,27.65
2022-11-30T02:33:07.332Z,24.77
2022-11-30T02:35:38.863Z,23.55
2022-11-30T02:38:06.599Z,25.20
2022-11-30T02:40:34.039Z,24.13
2022-11-30T02:43:03.601Z,24.45
2022-11-30T02:45:30.955Z,26.38
2022-11-30T02:48:07.351Z,25.55
2022-11-30T02:50:48.619Z,27.13
2022-11-30T02:53:16.020Z,25.15
2022-11-30T02:55:43.390Z,25.35
2022-11-30T02:58:11.864Z,24.63
2022-11-30T03:00:39.264Z,23.25
2022-11-30T03:03:06.640Z,26.42
2022-11-30T03:05:34.530Z,24.02
2022-11-30T03:08:01.982Z,22.60
2022-11-30T03:10:29.621Z,23.60
2022-11-30T03:13:00.625Z,24.92
2022-11-30T03:15:28.040Z,28.23
2022-11-30T03:17:55.477Z,25.70
2022-11-30T03:20:22.855Z,26.23
2022-11-30T03:22:50.211Z,27.17
2022-11-30T03:25:17.732Z,25.48
2022-11-30T03:27:45.129Z,25.92
2022-11-30T03:30:12.875Z,28.27
2022-11-30T03:32:40.254Z,27.77
2022-11-30T03:35:08.148Z,27.48
2022-11-30T03:37:35.523Z,26.27
2022-11-30T03:40:05.217Z,27.85
2022-11-30T03:42:32.584Z,27.70
2022-11-30T03:44:59.937Z,26.85
2022-11-30T03:47:27.313Z,28.05
2022-11-30T03:49:54.745Z,25.88
2022-11-30T03:52:22.295Z,25.63
2022-11-30T03:54:49.777Z,30.65
2022-11-30T03:57:17.400Z,25.52
2022-11-30T03:59:44.881Z,24.73
2022-11-30T04:02:12.435Z,28.05
2022-11-30T04:04:40.037Z,26.73
2022-11-30T04:07:07.547Z,26.40
2022-11-30T04:09:35.033Z,28.98
2022-11-30T04:12:02.645Z,25.67
2022-11-30T04:14:30.120Z,26.10
2022-11-30T04:16:57.587Z,31.20
2022-11-30T04:19:25.096Z,34.25
2022-11-30T04:21:52.537Z,31.25
2022-11-30T04:24:20.053Z,27.50
2022-11-30T04:26:47.721Z,29.10
2022-11-30T04:29:15.231Z,28.42
2022-11-30T04:31:42.813Z,31.15
2022-11-30T04:34:10.403Z,33.70
2022-11-30T04:36:37.885Z,29.83
2022-11-30T04:39:05.456Z,26.73
2022-11-30T04:41:32.805Z,26.90
2022-11-30T04:44:00.250Z,28.52
2022-11-30T04:46:27.795Z,30.55
2022-11-30T04:48:55.264Z,32.75
2022-11-30T04:51:22.650Z,29.50
2022-11-30T04:53:50.005Z,30.50
2022-11-30T04:56:17.412Z,29.65
2022-11-30T04:58:44.817Z,25.92
2022-11-30T05:01:12.223Z,32.90
2022-11-30T05:03:39.598Z,30.65
2022-11-30T05:06:07.032Z,30.33
2022-11-30T05:08:34.403Z,36.67
2022-11-30T05:11:01.818Z,35.17
2022-11-30T05:13:29.263Z,31.52
2022-11-30T05:15:56.661Z,33.78
2022-11-30T05:18:24.221Z,37.15
2022-11-30T05:20:52.841Z,35.15
2022-11-30T05:23:20.951Z,37.78
2022-11-30T05:25:48.913Z,34.20
2022-11-30T05:28:16.295Z,37.20
2022-11-30T05:30:43.910Z,34.25
2022-11-30T05:33:11.914Z,33.13
2022-11-30T05:35:39.781Z,30.77
2022-11-30T05:38:07.315Z,36.55
2022-11-30T05:40:34.985Z,30.98
2022-11-30T05:43:05.174Z,34.30
2022-11-30T05:45:32.621Z,32.05
2022-11-30T05:47:59.957Z,28.58
2022-11-30T05:50:27.368Z,30.50
2022-11-30T05:52:56.450Z,30.80
2022-11-30T05:55:24.805Z,34.63
2022-11-30T05:57:52.431Z,36.95
2022-11-30T06:00:21.129Z,30.05
2022-11-30T06:02:48.666Z,29.85
2022-11-30T06:05:16.355Z,29.65
2022-11-30T06:07:43.848Z,32.55
2022-11-30T06:10:11.903Z,33.33
2022-11-30T06:12:40.107Z,28.98
2022-11-30T06:15:08.597Z,33.63
2022-11-30T06:17:37.993Z,33.17
2022-11-30T06:20:08.766Z,33.33
2022-11-30T06:22:36.192Z,32.95
2022-11-30T06:25:04.601Z,32.33
2022-11-30T06:27:32.321Z,29.33
2022-11-30T06:29:59.773Z,36.13
2022-11-30T06:32:27.184Z,30.08
2022-11-30T06:34:54.574Z,32.05
2022-11-30T06:37:21.967Z,33.58
2022-11-30T06:42:38.065Z,32.28
2022-11-30T06:45:07.017Z,32.70
2022-11-30T06:47:34.529Z,36.30
2022-11-30T06:50:01.931Z,29.95
2022-11-30T06:52:31.500Z,34.15
2022-11-30T06:54:59.342Z,31.02
2022-11-30T06:57:30.273Z,36.70
2022-11-30T06:59:58.307Z,32.63
2022-11-30T07:02:25.732Z,30.67
2022-11-30T07:04:53.237Z,29.98
2022-11-30T07:07:21.134Z,30.10
2022-11-30T07:09:50.695Z,31.60
2022-11-30T07:12:18.382Z,32.70
2022-11-30T07:14:46.025Z,39.42
2022-11-30T07:17:13.752Z,31.80
2022-11-30T07:19:41.186Z,32.35
2022-11-30T07:22:08.575Z,30.92
2022-11-30T07:24:54.593Z,30.85
2022-11-30T07:27:21.948Z,33.30
2022-11-30T07:29:51.571Z,35.03
2022-11-30T07:32:19.443Z,34.80
2022-11-30T07:34:47.072Z,31.00
2022-11-30T07:37:14.669Z,32.63
2022-11-30T07:39:42.031Z,32.60
2022-11-30T07:42:09.461Z,32.70
2022-11-30T07:44:36.847Z,35.80
2022-11-30T07:47:04.348Z,35.40
2022-11-30T07:49:31.771Z,34.53
2022-11-30T07:51:59.203Z,37.55
2022-11-30T07:54:26.632Z,37.85
2022-11-30T07:56:54.049Z,37.10
2022-11-30T07:59:21.543Z,38.45
2022-11-30T08:01:49.057Z,44.47
2022-11-30T08:04:16.521Z,34.85
2022-11-30T08:06:44.366Z,35.20
2022-11-30T08:09:17.860Z,38.25
2022-11-30T08:11:49.316Z,35.45
2022-11-30T08:14:16.822Z,34.33
2022-11-30T08:16:44.510Z,39.92
2022-11-30T08:19:11.969Z,36.13
2022-11-30T08:21:39.420Z,39.22
2022-11-30T08:24:06.930Z,40.65
2022-11-30T08:26:34.468Z,39.67
2022-11-30T08:29:02.480Z,41.30
2022-11-30T08:31:34.956Z,49.10
2022-11-30T08:34:06.388Z,45.08
2022-11-30T08:36:34.515Z,34.03
2022-11-30T08:39:04.900Z,33.72
2022-11-30T08:41:34.771Z,37.90
2022-11-30T08:44:02.334Z,39.03
2022-11-30T08:49:21.884Z,41.60
2022-11-30T08:54:45.914Z,42.65
2022-11-30T08:57:20.447Z,36.95
2022-11-30T08:59:48.825Z,40.10
2022-11-30T09:02:18.751Z,33.20
2022-11-30T09:04:49.570Z,40.92
2022-11-30T09:07:17.272Z,35.55
2022-11-30T09:09:44.691Z,31.65
2022-11-30T09:12:12.103Z,30.33
2022-11-30T09:14:39.580Z,28.13
2022-11-30T09:17:06.989Z,31.65
2022-11-30T09:19:34.338Z,29.60
2022-11-30T09:22:01.773Z,28.02
2022-11-30T09:24:29.149Z,26.63
2022-11-30T09:26:59.546Z,23.08
2022-11-30T09:29:27.034Z,21.25
2022-11-30T09:31:54.480Z,20.20
2022-11-30T09:34:21.901Z,23.00
2022-11-30T09:36:49.298Z,22.60
2022-11-30T09:39:16.744Z,26.05
2022-11-30T09:42:19.047Z,21.58
2022-11-30T09:44:58.795Z,24.85
2022-11-30T09:47:38.373Z,24.38
2022-11-30T09:50:21.815Z,27.73
2022-11-30T09:53:11.669Z,23.65
2022-11-30T09:55:43.879Z,29.02
2022-11-30T10:00:51.036Z,20.25
2022-11-30T10:03:19.657Z,21.33
2022-11-30T10:05:48.359Z,23.35
2022-11-30T10:08:24.412Z,21.67
2022-11-30T10:11:01.172Z,17.80
2022-11-30T10:13:56.012Z,19.70
2022-11-30T10:16:52.106Z,16.00
2022-11-30T10:19:27.683Z,18.20
2022-11-30T10:22:14.002Z,18.60
2022-11-30T10:24:59.392Z,14.02
2022-11-30T10:27:55.316Z,17.70
2022-11-30T10:30:25.333Z,18.55
2022-11-30T10:32:58.775Z,19.42
2022-11-30T10:35:40.743Z,14.85
2022-11-30T10:38:22.619Z,16.60
2022-11-30T10:40:59.371Z,20.42
2022-11-30T10:43:40.969Z,12.95
2022-11-30T10:46:18.054Z,13.23
2022-11-30T10:48:54.495Z,13.93
2022-11-30T10:51:22.617Z,13.95
2022-11-30T10:53:50.133Z,13.02
2022-11-30T10:56:17.494Z,13.68
2022-11-30T10:58:47.637Z,12.88
2022-11-30T11:01:39.493Z,13.60
2022-11-30T11:04:12.795Z,12.45
2022-11-30T11:07:08.379Z,17.77
2022-11-30T11:09:41.248Z,11.98
2022-11-30T11:12:30.594Z,12.18
2022-11-30T11:15:18.249Z,13.50
2022-11-30T11:17:45.898Z,12.80
2022-11-30T11:20:39.029Z,11.90
2022-11-30T11:23:06.515Z,13.18
2022-11-30T11:25:43.083Z,12.18
2022-11-30T11:28:18.833Z,9.98
2022-11-30T11:30:46.281Z,12.70
2022-11-30T11:33:13.640Z,10.45
2022-11-30T11:35:45.331Z,18.52
2022-11-30T11:38:19.485Z,11.30
2022-11-30T11:41:12.363Z,9.23
2022-11-30T11:44:03.260Z,9.75
2022-11-30T11:46:33.257Z,9.25
2022-11-30T11:49:23.502Z,9.98
2022-11-30T11:52:05.157Z,11.27
2022-11-30T11:54:54.656Z,9.05
2022-11-30T11:57:36.476Z,9.32
2022-11-30T12:00:25.347Z,11.73
2022-11-30T12:03:18.507Z,13.77
2022-11-30T12:05:50.330Z,13.65
2022-11-30T12:08:48.546Z,12.25
2022-11-30T12:11:41.296Z,10.77
2022-11-30T12:14:13.993Z,14.02
2022-11-30T12:16:54.294Z,12.48
2022-11-30T12:19:42.641Z,10.93
2022-11-30T12:22:38.856Z,13.40
2022-11-30T12:25:22.319Z,13.73
2022-11-30T12:28:27.148Z,12.98
2022-11-30T12:31:15.198Z,14.70
2022-11-30T12:34:14.599Z,15.40
2022-11-30T12:36:48.212Z,15.13
2022-11-30T12:39:41.353Z,15.77
2022-11-30T12:42:19.816Z,19.15
2022-11-30T12:45:09.390Z,13.88
2022-11-30T12:47:39.553Z,13.68
2022-11-30T12:50:37.930Z,16.20
2022-11-30T12:53:36.355Z,13.98
2022-11-30T12:56:35.865Z,12.93
2022-11-30T12:59:15.525Z,15.05
2022-11-30T13:02:15.462Z,14.93
2022-11-30T13:04:58.003Z,12.95
2022-11-30T13:07:34.906Z,18.25
2022-11-30T13:10:37.472Z,18.70
2022-11-30T13:13:06.136Z,14.93
2022-11-30T13:15:35.152Z,18.40
2022-11-30T13:18:03.626Z,16.40
2022-11-30T13:20:39.873Z,15.02
2022-11-30T13:23:31.622Z,16.23
2022-11-30T13:26:17.598Z,18.23
2022-11-30T13:29:06.005Z,18.75
2022-11-30T13:32:05.453Z,18.27
2022-11-30T13:34:33.566Z,15.68
2022-11-30T13:37:07.193Z,16.60
2022-11-30T13:39:56.065Z,18.88
2022-11-30T13:42:26.500Z,17.77
2022-11-30T13:44:54.405Z,20.08
2022-11-30T13:47:35.839Z,16.58
2022-11-30T13:50:20.500Z,16.23
2022-11-30T13:53:03.527Z,18.85
2022-11-30T13:55:53.670Z,17.75
2022-11-30T13:58:21.339Z,15.98
2022-11-30T14:01:01.578Z,17.90
2022-11-30T14:03:32.018Z,23.33
2022-11-30T14:06:19.314Z,24.92
2022-11-30T14:08:46.688Z,23.63
2022-11-30T14:11:36.219Z,27.48
2022-11-30T14:14:46.376Z,29.55
2022-11-30T14:17:18.800Z,29.35
2022-11-30T14:19:49.598Z,27.73
2022-11-30T14:22:18.408Z,25.92
2022-11-30T14:24:48.797Z,27.48
2022-11-30T14:27:24.595Z,27.13
2022-11-30T14:29:57.234Z,30.17
2022-11-30T14:32:49.086Z,28.25
2022-11-30T14:35:18.924Z,28.83
2022-11-30T14:38:00.495Z,31.88
2022-11-30T14:40:33.707Z,25.87
2022-11-30T14:43:02.836Z,27.02
2022-11-30T14:45:33.384Z,25.08
2022-11-30T14:48:15.690Z,36.95
2022-11-30T14:50:55.074Z,28.70
2022-11-30T14:53:49.811Z,27.98
2022-11-30T14:56:33.156Z,30.52
2022-11-30T14:59:38.186Z,28.55
2022-11-30T15:02:16.937Z,27.02
2022-11-30T15:04:45.499Z,27.67
2022-11-30T15:07:15.243Z,24.60
2022-11-30T15:09:45.981Z,30.65
2022-11-30T15:12:33.080Z,29.38
2022-11-30T15:15:07.160Z,28.83
2022-11-30T15:17:49.185Z,32.28
2022-11-30T15:20:24.690Z,33.25
2022-11-30T15:23:02.106Z,31.10
2022-11-30T15:25:40.506Z,28.60
2022-11-30T15:28:10.489Z,30.05
2022-11-30T15:30:42.622Z,32.35
2022-11-30T15:33:21.836Z,33.33
2022-11-30T15:38:39.955Z,34.97
2022-11-30T15:41:27.741Z,47.70
2022-11-30T15:43:57.361Z,32.38
2022-11-30T15:46:45.801Z,32.28
2022-11-30T15:49:17.439Z,30.38
2022-11-30T15:51:47.074Z,32.58
2022-11-30T15:54:15.456Z,32.63
2022-11-30T15:56:56.186Z,33.42
2022-11-30T15:59:25.679Z,28.83
2022-11-30T16:02:04.869Z,30.50
2022-11-30T16:04:57.338Z,27.88
2022-11-30T16:07:28.287Z,28.90
2022-11-30T16:10:28.841Z,29.50
2022-11-30T16:12:56.302Z,30.92
2022-11-30T16:15:26.648Z,34.70
2022-11-30T16:17:58.538Z,32.65
2022-11-30T16:20:26.227Z,32.63
2022-11-30T16:22:53.678Z,30.13
2022-11-30T16:25:24.320Z,33.28
2022-11-30T16:27:52.826Z,26.75
2022-11-30T16:30:22.547Z,31.00
2022-11-30T16:32:50.591Z,35.17
2022-11-30T16:35:30.270Z,28.38
2022-11-30T16:37:57.744Z,29.38
2022-11-30T16:40:25.369Z,30.35
2022-11-30T16:42:52.852Z,28.17
2022-11-30T16:45:22.637Z,30.58
2022-11-30T16:47:50.965Z,24.02
2022-11-30T16:50:19.787Z,29.60
2022-11-30T16:52:47.234Z,31.52
2022-11-30T16:55:25.376Z,28.80
2022-11-30T16:57:54.329Z,28.52
2022-11-30T17:00:22.317Z,26.40
2022-11-30T17:02:57.593Z,24.70
2022-11-30T17:05:26.012Z,30.70
2022-11-30T17:07:53.873Z,28.63
2022-11-30T17:10:21.842Z,28.88
2022-11-30T17:12:49.592Z,27.17
2022-11-30T17:15:23.002Z,34.40
2022-11-30T17:17:50.720Z,31.85
2022-11-30T17:20:18.340Z,37.38
2022-11-30T17:22:45.820Z,41.75
2022-11-30T17:25:18.766Z,43.65
2022-11-30T17:27:46.935Z,38.17
2022-11-30T17:30:19.527Z,43.95
2022-11-30T17:35:14.797Z,37.22
2022-11-30T17:37:42.411Z,36.35
2022-11-30T17:40:15.426Z,37.05
2022-11-30T17:42:43.938Z,40.88
2022-11-30T17:45:11.722Z,43.00
2022-11-30T17:47:39.146Z,43.15
2022-11-30T17:50:07.615Z,41.45
2022-11-30T17:52:35.841Z,38.63
2022-11-30T17:55:03.632Z,38.25
2022-11-30T17:57:31.048Z,38.33
2022-11-30T17:59:58.477Z,43.00
2022-11-30T18:02:25.863Z,42.13
2022-11-30T18:04:54.512Z,43.17
2022-11-30T18:07:22.033Z,47.90
2022-11-30T18:09:49.559Z,41.08
2022-11-30T18:12:16.956Z,43.13
2022-11-30T18:14:45.186Z,41.42
2022-11-30T18:17:12.704Z,43.78
2022-11-30T18:19:40.803Z,49.00
2022-11-30T18:22:08.330Z,41.20
2022-11-30T18:24:35.963Z,46.20
2022-11-30T18:27:03.311Z,58.05
2022-11-30T18:29:30.716Z,53.42
2022-11-30T18:31:58.053Z,47.88
2022-11-30T18:34:25.528Z,44.85
2022-11-30T18:36:52.931Z,54.92
2022-11-30T18:39:20.346Z,59.47
2022-11-30T18:41:47.749Z,55.28
2022-11-30T18:44:15.182Z,53.97
2022-11-30T18:46:42.763Z,50.35
2022-11-30T18:49:10.425Z,56.50
2022-11-30T18:51:37.900Z,43.72
2022-11-30T18:54:07.703Z,47.13
2022-11-30T18:56:37.011Z,48.10
2022-11-30T18:59:07.214Z,42.40
2022-11-30T19:01:35.529Z,51.45
2022-11-30T19:04:06.348Z,41.70
2022-11-30T19:06:34.599Z,47.85
2022-11-30T19:09:06.329Z,44.67
2022-11-30T19:11:34.227Z,50.30
2022-11-30T19:14:02.836Z,45.95
2022-11-30T19:16:32.022Z,45.10
2022-11-30T19:19:01.161Z,40.85
2022-11-30T19:21:28.706Z,56.45
2022-11-30T19:23:58.798Z,39.33
2022-11-30T19:26:28.375Z,39.88
2022-11-30T19:28:57.057Z,40.45
2022-11-30T19:31:25.596Z,40.17
2022-11-30T19:33:54.757Z,34.42
2022-11-30T19:36:24.638Z,34.55
2022-11-30T19:38:52.165Z,40.92
2022-11-30T19:41:21.150Z,34.20
2022-11-30T19:43:58.113Z,37.03
2022-11-30T19:46:28.775Z,33.47
2022-11-30T19:49:01.159Z,39.10
2022-11-30T19:51:29.627Z,34.40
2022-11-30T19:53:57.650Z,40.03
2022-11-30T19:56:25.765Z,35.28
2022-11-30T19:58:53.735Z,34.25
2022-11-30T20:01:24.133Z,34.88
2022-11-30T20:03:52.978Z,34.38
2022-11-30T20:06:23.565Z,35.53
2022-11-30T20:08:51.011Z,40.33
2022-11-30T20:11:18.436Z,34.05
2022-11-30T20:13:46.033Z,34.85
2022-11-30T20:16:15.911Z,39.85
2022-11-30T20:18:46.521Z,33.85
2022-11-30T20:21:16.942Z,34.45
2022-11-30T20:23:46.778Z,32.45
2022-11-30T20:26:32.191Z,35.42
2022-11-30T20:29:01.597Z,35.67
2022-11-30T20:31:31.491Z,34.92
2022-11-30T20:33:59.101Z,38.53
2022-11-30T20:36:26.797Z,37.15
2022-11-30T20:38:54.795Z,32.92
2022-11-30T20:41:24.210Z,39.58
2022-11-30T20:43:52.079Z,35.53
2022-11-30T20:46:33.964Z,37.40
2022-11-30T20:49:03.165Z,33.72
2022-11-30T20:51:33.540Z,32.25
2022-11-30T20:54:03.417Z,29.33
2022-11-30T20:56:31.208Z,33.75
2022-11-30T20:59:02.350Z,37.80
2022-11-30T21:01:29.839Z,34.45
2022-11-30T21:03:59.466Z,32.22
2022-11-30T21:06:28.458Z,31.77
2022-11-30T21:08:56.019Z,32.22
2022-11-30T21:11:23.757Z,29.20
2022-11-30T21:13:51.502Z,33.47
2022-11-30T21:16:27.337Z,31.60
2022-11-30T21:18:57.546Z,29.52
2022-11-30T21:21:28.146Z,26.63
2022-11-30T21:23:58.979Z,28.13
2022-11-30T21:26:30.198Z,25.65
2022-11-30T21:29:03.979Z,27.17
2022-11-30T21:31:31.939Z,27.85
2022-11-30T21:33:59.975Z,22.08
2022-11-30T21:36:27.634Z,25.90
2022-11-30T21:39:02.925Z,27.60
2022-11-30T21:41:36.983Z,19.50
2022-11-30T21:44:07.862Z,26.08
2022-11-30T21:46:35.442Z,21.52
2022-11-30T21:49:03.695Z,19.00
2022-11-30T21:51:31.993Z,26.88
2022-11-30T21:54:02.762Z,22.20
2022-11-30T21:56:33.311Z,22.20
2022-11-30T21:59:01.558Z,23.30
2022-11-30T22:01:37.649Z,22.77
2022-11-30T22:04:07.369Z,21.50
2022-11-30T22:06:36.890Z,19.77
2022-11-30T22:09:10.060Z,22.23
2022-11-30T22:11:39.783Z,22.75
2022-11-30T22:14:12.311Z,21.40
2022-11-30T22:16:39.952Z,24.23
2022-11-30T22:19:07.671Z,20.58
2022-11-30T22:21:35.405Z,20.08
2022-11-30T22:24:05.836Z,20.63
2022-11-30T22:26:41.538Z,21.55
2022-11-30T22:29:16.504Z,19.17
2022-11-30T22:31:45.879Z,20.05
2022-11-30T22:34:13.777Z,18.08
2022-11-30T22:36:43.139Z,19.17
2022-11-30T22:39:11.845Z,18.65
2022-11-30T22:41:40.825Z,22.08
2022-11-30T22:44:12.195Z,16.65
2022-11-30T22:46:39.778Z,18.67
2022-11-30T22:49:09.346Z,18.10
2022-11-30T22:51:38.139Z,20.05
2022-11-30T22:54:06.661Z,21.05
2022-11-30T22:56:36.424Z,18.55
2022-11-30T22:59:04.841Z,18.27
2022-11-30T23:01:33.418Z,17.02
2022-11-30T23:04:04.888Z,18.65
2022-11-30T23:06:33.999Z,19.98
2022-11-30T23:09:01.812Z,18.70
2022-11-30T23:11:30.241Z,21.67
2022-11-30T23:13:58.110Z,22.50
2022-11-30T23:16:26.088Z,21.38
2022-11-30T23:18:57.462Z,18.83
2022-11-30T23:21:29.982Z,20.13
2022-11-30T23:24:01.102Z,18.52
2022-11-30T23:26:31.774Z,21.08
2022-11-30T23:29:01.827Z,20.70
2022-11-30T23:31:35.314Z,21.35
2022-11-30T23:34:06.033Z,23.00
2022-11-30T23:36:34.688Z,20.00
2022-11-30T23:39:05.375Z,18.98
2022-11-30T23:41:33.250Z,21.80
2022-11-30T23:44:01.000Z,18.90
2022-11-30T23:46:28.969Z,24.00
2022-11-30T23:48:56.659Z,19.20
2022-11-30T23:51:24.573Z,23.75
2022-11-30T23:53:52.349Z,19.85
2022-11-30T23:56:21.214Z,20.25
2022-11-30T23:58:48.765Z,19.60
